Titus, Alabama
Current Conditions -  °F | °C
As of 12:15 PM on Friday 28 Nov 2014 (Local Time) from K1A9 Reporting Station
Clear Clear  
Wind Chill: 50°   Ceiling: Unl
Heat Index: 50°   Visibility: 10mi
Dew Point: 13°   Wind: 0mph
Humidity: 22%   Direction: NA
Pressure: 30.37"   Gusts: NA
Location:  32.71°N, 86.32°W
Report Text: K1A9 281815Z AUTO 00000KT 10SM CLR 10/M11 A3037 RMK AO2 T01011107
Loading
Personal Weather Stations






























Interactive Weather Map New forecast layout! Learn more

10-Day Weather Forecast

Advertisements
Track Severe Weather on mobile